createdAt,value
2022-12-31T00:00:21.085Z,2.14
2022-12-31T00:02:48.015Z,2.20
2022-12-31T00:05:15.100Z,2.19
2022-12-31T00:10:08.186Z,2.13
2022-12-31T00:12:35.313Z,2.19
2022-12-31T00:15:03.530Z,2.21
2022-12-31T00:17:30.551Z,2.23
2022-12-31T00:19:57.503Z,2.25
2022-12-31T00:22:24.367Z,2.29
2022-12-31T00:24:51.295Z,2.40
2022-12-31T00:27:18.109Z,2.46
2022-12-31T00:29:45.000Z,2.50
2022-12-31T00:32:11.819Z,2.51
2022-12-31T00:34:38.793Z,2.54
2022-12-31T00:37:05.660Z,2.52
2022-12-31T00:39:32.667Z,2.52
2022-12-31T00:41:59.503Z,2.42
2022-12-31T00:44:26.403Z,2.23
2022-12-31T00:46:53.255Z,2.29
2022-12-31T00:49:20.135Z,2.42
2022-12-31T00:51:47.443Z,2.53
2022-12-31T00:54:14.673Z,2.58
2022-12-31T00:56:41.668Z,2.59
2022-12-31T00:59:08.528Z,2.58
2022-12-31T01:01:38.421Z,2.51
2022-12-31T01:04:11.696Z,2.43
2022-12-31T01:06:39.607Z,2.45
2022-12-31T01:09:07.519Z,2.47
2022-12-31T01:11:34.430Z,2.45
2022-12-31T01:14:04.398Z,2.48
2022-12-31T01:16:32.665Z,2.56
2022-12-31T01:19:01.850Z,2.55
2022-12-31T01:21:30.694Z,2.54
2022-12-31T01:23:58.789Z,2.47
2022-12-31T01:26:26.644Z,2.57
2022-12-31T01:28:53.663Z,2.53
2022-12-31T01:31:22.387Z,2.46
2022-12-31T01:33:50.513Z,2.46
2022-12-31T01:36:26.624Z,2.53
2022-12-31T01:38:59.117Z,2.54
2022-12-31T01:41:30.090Z,2.64
2022-12-31T01:43:58.797Z,2.54
2022-12-31T01:46:39.695Z,2.43
2022-12-31T01:49:11.091Z,2.47
2022-12-31T01:51:40.104Z,2.52
2022-12-31T01:54:09.567Z,2.32
2022-12-31T01:56:39.001Z,2.29
2022-12-31T01:59:08.894Z,2.38
2022-12-31T02:01:37.973Z,2.48
2022-12-31T02:04:13.653Z,2.52
2022-12-31T02:07:03.532Z,2.55
2022-12-31T02:09:32.655Z,2.47
2022-12-31T02:11:59.929Z,2.40
2022-12-31T02:14:31.113Z,2.38
2022-12-31T02:17:10.867Z,2.38
2022-12-31T02:20:09.347Z,2.44
2022-12-31T02:22:59.673Z,2.52
2022-12-31T02:25:48.509Z,2.56
2022-12-31T02:28:49.187Z,2.60
2022-12-31T02:31:23.025Z,2.54
2022-12-31T02:34:01.141Z,2.55
2022-12-31T02:36:36.828Z,2.51
2022-12-31T02:39:06.333Z,2.39
2022-12-31T02:41:51.350Z,2.34
2022-12-31T02:44:22.424Z,2.37
2022-12-31T02:46:55.418Z,2.39
2022-12-31T02:49:35.535Z,2.52
2022-12-31T02:52:24.328Z,2.55
2022-12-31T02:55:03.818Z,2.56
2022-12-31T02:57:46.482Z,2.58
2022-12-31T03:00:35.170Z,2.47
2022-12-31T03:03:04.005Z,2.48
2022-12-31T03:05:34.463Z,2.50
2022-12-31T03:08:01.319Z,2.52
2022-12-31T03:10:28.292Z,2.57
2022-12-31T03:12:55.192Z,2.60
2022-12-31T03:15:28.638Z,2.56
2022-12-31T03:17:58.317Z,2.60
2022-12-31T03:20:47.521Z,2.71
2022-12-31T03:23:17.518Z,2.75
2022-12-31T03:25:44.701Z,2.72
2022-12-31T03:28:15.228Z,2.60
2022-12-31T03:30:44.669Z,2.62
2022-12-31T03:33:11.857Z,2.67
2022-12-31T03:35:40.531Z,2.73
2022-12-31T03:38:08.177Z,2.73
2022-12-31T03:40:39.782Z,2.58
2022-12-31T03:43:06.763Z,2.45
2022-12-31T03:45:35.832Z,2.42
2022-12-31T03:48:04.707Z,2.41
2022-12-31T03:50:32.051Z,2.39
2022-12-31T03:52:59.190Z,2.35
2022-12-31T03:55:26.125Z,2.40
2022-12-31T03:57:53.008Z,2.47
2022-12-31T04:00:21.284Z,2.47
2022-12-31T04:02:49.316Z,2.61
2022-12-31T04:05:17.690Z,2.66
2022-12-31T04:07:44.548Z,2.63
2022-12-31T04:10:13.621Z,2.63
2022-12-31T04:12:40.873Z,2.59
2022-12-31T04:15:09.713Z,2.63
2022-12-31T04:17:37.835Z,2.64
2022-12-31T04:20:05.293Z,2.70
2022-12-31T04:22:32.349Z,2.69
2022-12-31T04:24:59.232Z,2.73
2022-12-31T04:27:26.171Z,2.71
2022-12-31T04:29:53.052Z,2.66
2022-12-31T04:32:19.991Z,2.68
2022-12-31T04:34:46.890Z,2.72
2022-12-31T04:37:13.824Z,2.65
2022-12-31T04:39:40.702Z,2.58
2022-12-31T04:42:07.611Z,2.55
2022-12-31T04:44:35.232Z,2.55
2022-12-31T04:47:02.259Z,2.58
2022-12-31T04:49:29.202Z,2.61
2022-12-31T04:51:56.088Z,2.67
2022-12-31T04:54:23.038Z,2.78
2022-12-31T04:56:49.932Z,2.75
2022-12-31T04:59:16.758Z,2.74
2022-12-31T05:01:43.738Z,2.75
2022-12-31T05:04:10.648Z,2.76
2022-12-31T05:06:37.545Z,2.80
2022-12-31T05:09:04.492Z,2.79
2022-12-31T05:11:31.508Z,2.78
2022-12-31T05:13:58.421Z,2.87
2022-12-31T05:16:25.358Z,2.84
2022-12-31T05:18:52.225Z,2.77
2022-12-31T05:21:21.321Z,2.89
2022-12-31T05:23:49.048Z,2.91
2022-12-31T05:26:16.498Z,2.82
2022-12-31T05:28:43.375Z,2.88
2022-12-31T05:31:10.701Z,2.88
2022-12-31T05:33:37.641Z,2.75
2022-12-31T05:36:04.917Z,2.69
2022-12-31T05:38:31.772Z,2.71
2022-12-31T05:41:00.295Z,2.62
2022-12-31T05:43:27.162Z,2.68
2022-12-31T05:45:54.156Z,2.66
2022-12-31T05:48:21.393Z,2.48
2022-12-31T05:50:49.557Z,2.52
2022-12-31T05:53:16.419Z,2.48
2022-12-31T05:55:44.818Z,2.54
2022-12-31T05:58:11.704Z,2.57
2022-12-31T06:00:38.566Z,2.55
2022-12-31T06:03:05.479Z,2.57
2022-12-31T06:05:32.413Z,2.61
2022-12-31T06:07:59.356Z,2.73
2022-12-31T06:10:26.212Z,2.76
2022-12-31T06:12:53.065Z,2.81
2022-12-31T06:15:20.014Z,2.81
2022-12-31T06:17:46.856Z,2.76
2022-12-31T06:20:13.669Z,2.84
2022-12-31T06:22:40.537Z,2.83
2022-12-31T06:25:07.719Z,2.80
2022-12-31T06:27:34.608Z,2.72
2022-12-31T06:30:01.474Z,2.71
2022-12-31T06:32:28.372Z,2.74
2022-12-31T06:34:55.255Z,2.63
2022-12-31T06:37:22.001Z,2.50
2022-12-31T06:39:49.154Z,2.41
2022-12-31T06:42:16.004Z,2.35
2022-12-31T06:44:42.716Z,2.34
2022-12-31T06:47:09.529Z,2.26
2022-12-31T06:49:36.379Z,2.36
2022-12-31T06:52:03.384Z,2.31
2022-12-31T06:54:30.287Z,2.38
2022-12-31T06:56:57.434Z,2.48
2022-12-31T06:59:29.754Z,2.57
2022-12-31T07:02:17.526Z,2.64
2022-12-31T07:05:08.164Z,2.70
2022-12-31T07:07:44.548Z,2.72
2022-12-31T07:10:28.973Z,2.70
2022-12-31T07:13:35.549Z,2.66
2022-12-31T07:16:20.397Z,2.71
2022-12-31T07:19:16.601Z,2.76
2022-12-31T07:21:44.801Z,2.77
2022-12-31T07:24:12.557Z,2.81
2022-12-31T07:26:57.452Z,2.92
2022-12-31T07:29:35.129Z,3.08
2022-12-31T07:32:43.576Z,3.16
2022-12-31T07:35:34.518Z,3.17
2022-12-31T07:38:39.857Z,3.19
2022-12-31T07:41:20.032Z,3.18
2022-12-31T07:43:59.219Z,3.18
2022-12-31T07:46:33.581Z,3.01
2022-12-31T07:49:00.827Z,3.03
2022-12-31T07:51:28.200Z,3.10
2022-12-31T07:53:55.068Z,3.12
2022-12-31T07:56:21.960Z,3.11
2022-12-31T07:59:00.907Z,3.15
2022-12-31T08:01:42.751Z,3.20
2022-12-31T08:04:28.076Z,3.17
2022-12-31T08:07:04.042Z,3.27
2022-12-31T08:09:45.110Z,3.28
2022-12-31T08:12:12.208Z,3.25
2022-12-31T08:14:48.767Z,3.26
2022-12-31T08:17:18.176Z,3.39
2022-12-31T08:19:48.207Z,3.48
2022-12-31T08:22:37.357Z,3.56
2022-12-31T08:25:17.686Z,3.65
2022-12-31T08:28:20.309Z,3.73
2022-12-31T08:31:14.844Z,3.75
2022-12-31T08:34:06.134Z,3.76
2022-12-31T08:36:47.915Z,3.68
2022-12-31T08:39:27.767Z,3.70
2022-12-31T08:41:58.401Z,3.68
2022-12-31T08:44:37.912Z,3.66
2022-12-31T08:47:35.503Z,3.72
2022-12-31T08:50:07.191Z,3.67
2022-12-31T08:52:34.295Z,3.70
2022-12-31T08:55:02.881Z,3.80
2022-12-31T08:57:43.006Z,3.97
2022-12-31T09:00:10.387Z,3.92
2022-12-31T09:02:49.338Z,3.94
2022-12-31T09:05:20.050Z,4.11
2022-12-31T09:08:20.128Z,4.35
2022-12-31T09:11:05.659Z,4.36
2022-12-31T09:13:52.847Z,4.34
2022-12-31T09:16:42.951Z,4.51
2022-12-31T09:19:10.780Z,4.55
2022-12-31T09:21:38.722Z,4.57
2022-12-31T09:24:09.548Z,4.73
2022-12-31T09:27:16.049Z,4.82
2022-12-31T09:30:06.185Z,4.72
2022-12-31T09:32:43.266Z,4.55
2022-12-31T09:35:29.136Z,4.35
2022-12-31T09:38:11.816Z,4.04
2022-12-31T09:40:47.938Z,3.86
2022-12-31T09:44:01.253Z,3.88
2022-12-31T09:46:47.325Z,3.91
2022-12-31T09:49:42.192Z,4.04
2022-12-31T09:52:40.677Z,4.23
2022-12-31T09:55:08.005Z,4.19
2022-12-31T09:57:51.451Z,4.26
2022-12-31T10:01:11.867Z,4.06
2022-12-31T10:04:03.983Z,4.12
2022-12-31T10:06:53.021Z,4.39
2022-12-31T10:09:27.766Z,4.58
2022-12-31T10:12:18.564Z,4.29
2022-12-31T10:14:55.660Z,3.92
2022-12-31T10:17:59.085Z,3.86
2022-12-31T10:20:51.925Z,3.90
2022-12-31T10:23:37.043Z,4.06
2022-12-31T10:26:23.283Z,4.30
2022-12-31T10:29:09.970Z,4.31
2022-12-31T10:32:05.480Z,4.31
2022-12-31T10:35:05.472Z,4.36
2022-12-31T10:37:43.594Z,4.26
2022-12-31T10:40:24.926Z,4.20
2022-12-31T10:43:09.739Z,4.35
2022-12-31T10:46:15.040Z,4.25
2022-12-31T10:48:50.214Z,4.54
2022-12-31T10:51:48.069Z,4.63
2022-12-31T10:54:42.248Z,4.75
2022-12-31T10:57:31.936Z,4.90
2022-12-31T11:00:10.495Z,4.93
2022-12-31T11:02:40.858Z,4.98
2022-12-31T11:05:43.275Z,5.07
2022-12-31T11:08:34.988Z,5.31
2022-12-31T11:11:40.747Z,5.47
2022-12-31T11:14:30.861Z,5.20
2022-12-31T11:17:06.569Z,5.32
2022-12-31T11:19:49.154Z,5.41
2022-12-31T11:22:24.254Z,5.60
2022-12-31T11:24:51.956Z,5.82
2022-12-31T11:27:46.086Z,6.03
2022-12-31T11:30:22.276Z,5.66
2022-12-31T11:33:10.757Z,5.34
2022-12-31T11:35:52.922Z,5.30
2022-12-31T11:38:33.328Z,5.31
2022-12-31T11:41:11.371Z,5.30
2022-12-31T11:43:51.408Z,5.38
2022-12-31T11:46:41.520Z,5.31
2022-12-31T11:49:20.305Z,5.20
2022-12-31T11:51:57.869Z,5.33
2022-12-31T11:54:25.243Z,5.55
2022-12-31T11:57:05.232Z,5.45
2022-12-31T11:59:32.966Z,5.46
2022-12-31T12:02:25.384Z,5.19
2022-12-31T12:04:55.618Z,5.20
2022-12-31T12:07:24.190Z,5.21
2022-12-31T12:09:54.691Z,5.37
2022-12-31T12:12:22.945Z,5.50
2022-12-31T12:14:53.874Z,5.53
2022-12-31T12:17:33.168Z,5.41
2022-12-31T12:20:03.732Z,5.58
2022-12-31T12:22:31.489Z,5.81
2022-12-31T12:25:17.634Z,5.89
2022-12-31T12:27:44.852Z,5.71
2022-12-31T12:30:24.902Z,5.73
2022-12-31T12:32:54.464Z,5.64
2022-12-31T12:35:29.988Z,5.61
2022-12-31T12:38:21.406Z,5.49
2022-12-31T12:41:01.114Z,5.63
2022-12-31T12:43:36.255Z,5.59
2022-12-31T12:46:18.800Z,5.50
2022-12-31T12:48:49.520Z,5.34
2022-12-31T12:51:30.750Z,5.57
2022-12-31T12:54:00.416Z,5.83
2022-12-31T12:56:49.430Z,5.94
2022-12-31T12:59:19.541Z,6.08
2022-12-31T13:02:16.533Z,5.95
2022-12-31T13:05:20.543Z,6.09
2022-12-31T13:08:14.542Z,6.09
2022-12-31T13:10:47.435Z,6.24
2022-12-31T13:13:30.548Z,6.42
2022-12-31T13:16:00.102Z,6.29
2022-12-31T13:18:36.019Z,5.96
2022-12-31T13:21:21.381Z,6.12
2022-12-31T13:23:53.315Z,6.28
2022-12-31T13:26:20.137Z,6.23
2022-12-31T13:28:49.220Z,6.24
2022-12-31T13:31:21.867Z,6.29
2022-12-31T13:33:59.328Z,6.36
2022-12-31T13:36:28.660Z,6.59
2022-12-31T13:38:59.520Z,6.80
2022-12-31T13:41:32.304Z,6.88
2022-12-31T13:44:06.554Z,6.87
2022-12-31T13:46:36.347Z,7.02
2022-12-31T13:49:13.351Z,7.09
2022-12-31T13:51:45.366Z,7.11
2022-12-31T13:54:33.279Z,7.19
2022-12-31T13:57:02.661Z,7.24
2022-12-31T13:59:35.467Z,7.08
2022-12-31T14:02:20.204Z,6.99
2022-12-31T14:04:53.157Z,6.66
2022-12-31T14:07:26.698Z,6.30
2022-12-31T14:09:58.514Z,6.38
2022-12-31T14:12:56.029Z,6.59
2022-12-31T14:15:31.142Z,6.61
2022-12-31T14:18:14.118Z,6.68
2022-12-31T14:20:49.303Z,6.60
2022-12-31T14:23:28.276Z,6.40
2022-12-31T14:26:07.679Z,6.33
2022-12-31T14:28:47.729Z,6.30
2022-12-31T14:31:27.851Z,6.21
2022-12-31T14:34:37.660Z,6.07
2022-12-31T14:37:13.327Z,6.05
2022-12-31T14:40:16.927Z,6.10
2022-12-31T14:43:13.085Z,6.09
2022-12-31T14:45:56.557Z,6.03
2022-12-31T14:48:53.819Z,5.95
2022-12-31T14:51:21.035Z,5.89
2022-12-31T14:53:54.953Z,5.86
2022-12-31T14:56:42.918Z,5.84
2022-12-31T14:59:33.342Z,5.68
2022-12-31T15:02:04.425Z,5.60
2022-12-31T15:04:49.609Z,5.40
2022-12-31T15:07:33.773Z,5.30
2022-12-31T15:10:26.963Z,5.26
2022-12-31T15:12:59.719Z,5.21
2022-12-31T15:15:40.655Z,5.10
2022-12-31T15:18:10.643Z,4.93
2022-12-31T15:20:40.163Z,4.81
2022-12-31T15:23:24.798Z,4.73
2022-12-31T15:25:59.330Z,4.74
2022-12-31T15:28:34.971Z,4.82
2022-12-31T15:31:17.512Z,4.46
2022-12-31T15:33:59.150Z,4.21
2022-12-31T15:36:29.810Z,4.04
2022-12-31T15:39:19.033Z,4.04
2022-12-31T15:42:35.473Z,4.11
2022-12-31T15:44:50.133Z,4.17
2022-12-31T15:47:44.328Z,4.12
2022-12-31T15:50:21.430Z,4.13
2022-12-31T15:53:04.480Z,4.04
2022-12-31T15:55:44.409Z,4.00
2022-12-31T15:58:23.906Z,3.79
2022-12-31T16:01:14.827Z,3.79
2022-12-31T16:04:01.897Z,3.84
2022-12-31T16:06:31.534Z,3.88
2022-12-31T16:08:58.806Z,3.92
2022-12-31T16:11:30.376Z,3.81
2022-12-31T16:13:58.725Z,3.70
2022-12-31T16:16:29.850Z,3.72
2022-12-31T16:18:59.081Z,3.64
2022-12-31T16:21:38.296Z,3.67
2022-12-31T16:24:32.765Z,3.78
2022-12-31T16:27:08.621Z,3.76
2022-12-31T16:29:38.351Z,3.76
2022-12-31T16:32:11.923Z,3.88
2022-12-31T16:34:39.641Z,3.77
2022-12-31T16:37:19.762Z,3.69
2022-12-31T16:39:58.508Z,3.67
2022-12-31T16:42:29.390Z,3.60
2022-12-31T16:44:57.517Z,3.68
2022-12-31T16:47:34.169Z,3.68
2022-12-31T16:50:11.507Z,3.59
2022-12-31T16:52:44.798Z,3.56
2022-12-31T16:55:27.203Z,3.58
2022-12-31T16:58:01.042Z,3.63
2022-12-31T17:00:28.353Z,3.77
2022-12-31T17:03:16.843Z,3.89
2022-12-31T17:05:56.035Z,3.93
2022-12-31T17:08:28.834Z,4.00
2022-12-31T17:10:56.615Z,4.07
2022-12-31T17:13:35.079Z,4.13
2022-12-31T17:16:02.609Z,4.21
2022-12-31T17:18:37.264Z,4.03
2022-12-31T17:21:10.353Z,3.99
2022-12-31T17:23:39.935Z,3.84
2022-12-31T17:26:11.628Z,3.74
2022-12-31T17:28:50.035Z,3.69
2022-12-31T17:31:38.221Z,3.65
2022-12-31T17:34:12.610Z,3.62
2022-12-31T17:36:57.283Z,3.56
2022-12-31T17:39:25.401Z,3.59
2022-12-31T17:41:58.276Z,3.58
2022-12-31T17:44:29.240Z,3.60
2022-12-31T17:46:56.356Z,3.60
2022-12-31T17:49:30.124Z,3.65
2022-12-31T17:51:57.285Z,3.73
2022-12-31T17:54:24.148Z,3.80
2022-12-31T17:56:52.873Z,3.86
2022-12-31T17:59:23.370Z,3.85
2022-12-31T18:01:50.783Z,3.71
2022-12-31T18:04:19.235Z,3.76
2022-12-31T18:06:46.249Z,3.84
2022-12-31T18:09:13.191Z,3.97
2022-12-31T18:11:41.051Z,3.99
2022-12-31T18:14:08.325Z,4.04
2022-12-31T18:16:35.361Z,4.07
2022-12-31T18:19:02.407Z,4.12
2022-12-31T18:21:34.934Z,4.14
2022-12-31T18:26:30.202Z,4.25
2022-12-31T18:29:00.375Z,4.25
2022-12-31T18:31:30.204Z,3.99
2022-12-31T18:33:59.109Z,3.85
2022-12-31T18:36:27.780Z,3.71
2022-12-31T18:38:54.777Z,3.62
2022-12-31T18:41:24.739Z,3.56
2022-12-31T18:43:51.674Z,3.56
2022-12-31T18:46:21.562Z,3.48
2022-12-31T18:48:48.972Z,3.49
2022-12-31T18:51:31.484Z,3.55
2022-12-31T18:54:00.613Z,3.49
2022-12-31T18:56:27.958Z,3.49
2022-12-31T18:58:55.502Z,3.46
2022-12-31T19:01:34.274Z,3.49
2022-12-31T19:04:10.292Z,3.41
2022-12-31T19:06:37.459Z,3.51
2022-12-31T19:09:13.260Z,3.57
2022-12-31T19:11:51.960Z,3.40
2022-12-31T19:14:21.872Z,3.37
2022-12-31T19:16:49.588Z,3.37
2022-12-31T19:19:16.983Z,3.45
2022-12-31T19:21:44.547Z,3.59
2022-12-31T19:24:26.756Z,3.67
2022-12-31T19:26:54.822Z,3.61
2022-12-31T19:29:26.773Z,3.57
2022-12-31T19:31:54.349Z,3.56
2022-12-31T19:34:21.436Z,3.58
2022-12-31T19:36:48.512Z,3.70
2022-12-31T19:39:17.903Z,3.81
2022-12-31T19:41:45.036Z,3.58
2022-12-31T19:44:16.547Z,3.64
2022-12-31T19:46:44.019Z,3.77
2022-12-31T19:49:12.335Z,3.80
2022-12-31T19:51:39.318Z,3.59
2022-12-31T19:54:06.816Z,3.65
2022-12-31T19:56:34.147Z,3.69
2022-12-31T19:59:10.961Z,3.78
2022-12-31T20:01:38.668Z,3.77
2022-12-31T20:04:05.878Z,3.77
2022-12-31T20:06:32.796Z,3.68
2022-12-31T20:08:59.725Z,3.70
2022-12-31T20:11:26.823Z,3.81
2022-12-31T20:13:54.279Z,3.79
2022-12-31T20:16:24.631Z,3.90
2022-12-31T20:18:52.318Z,3.94
2022-12-31T20:21:22.208Z,3.89
2022-12-31T20:23:50.573Z,3.86
2022-12-31T20:26:18.831Z,3.87
2022-12-31T20:28:46.219Z,3.86
2022-12-31T20:31:16.329Z,3.89
2022-12-31T20:33:43.641Z,3.89
2022-12-31T20:36:13.481Z,3.90
2022-12-31T20:38:41.162Z,3.94
2022-12-31T20:41:12.293Z,3.82
2022-12-31T20:43:40.212Z,3.58
2022-12-31T20:46:15.227Z,3.55
2022-12-31T20:48:44.079Z,3.54
2022-12-31T20:51:11.799Z,3.52
2022-12-31T20:53:38.887Z,3.54
2022-12-31T20:56:09.699Z,3.59
2022-12-31T20:58:37.273Z,3.68
2022-12-31T21:01:08.709Z,3.65
2022-12-31T21:06:28.744Z,3.54
2022-12-31T21:08:57.425Z,3.54
2022-12-31T21:11:43.005Z,3.52
2022-12-31T21:14:10.046Z,3.60
2022-12-31T21:16:37.041Z,3.61
2022-12-31T21:19:04.026Z,3.60
2022-12-31T21:21:31.211Z,3.54
2022-12-31T21:23:58.193Z,3.61
2022-12-31T21:26:25.290Z,3.62
2022-12-31T21:28:53.844Z,3.70
2022-12-31T21:31:21.254Z,3.55
2022-12-31T21:33:48.769Z,3.55
2022-12-31T21:36:16.278Z,3.54
2022-12-31T21:38:44.143Z,3.56
2022-12-31T21:41:33.571Z,3.61
2022-12-31T21:44:02.167Z,3.72
2022-12-31T21:46:29.502Z,3.71
2022-12-31T21:48:58.583Z,3.74
2022-12-31T21:51:25.977Z,3.72
2022-12-31T21:53:53.155Z,3.45
2022-12-31T21:56:21.430Z,3.52
2022-12-31T21:59:16.771Z,3.55
2022-12-31T22:02:10.148Z,3.27
2022-12-31T22:07:26.155Z,3.44
2022-12-31T22:09:53.190Z,3.39
2022-12-31T22:12:20.149Z,3.46
2022-12-31T22:15:14.833Z,3.54
2022-12-31T22:17:34.707Z,3.61
2022-12-31T22:20:26.582Z,3.70
2022-12-31T22:22:49.421Z,3.70
2022-12-31T22:25:16.700Z,3.65
2022-12-31T22:27:53.098Z,3.55
2022-12-31T22:30:31.081Z,3.43
2022-12-31T22:32:57.960Z,3.30
2022-12-31T22:35:24.884Z,3.21
2022-12-31T22:38:04.183Z,3.18
2022-12-31T22:40:35.167Z,3.25
2022-12-31T22:43:02.025Z,3.34
2022-12-31T22:45:29.015Z,3.33
2022-12-31T22:47:55.996Z,3.30
2022-12-31T22:50:22.881Z,3.34
2022-12-31T22:52:49.747Z,3.28
2022-12-31T22:55:16.865Z,3.32
2022-12-31T22:57:43.666Z,3.35
2022-12-31T23:00:16.007Z,3.43
2022-12-31T23:02:43.502Z,3.33
2022-12-31T23:05:15.646Z,3.23
2022-12-31T23:07:44.178Z,3.12
2022-12-31T23:10:29.581Z,3.07
2022-12-31T23:12:56.478Z,3.15
2022-12-31T23:15:42.369Z,3.20
2022-12-31T23:18:28.103Z,3.24
2022-12-31T23:21:13.340Z,3.23
2022-12-31T23:23:40.171Z,3.16
2022-12-31T23:26:07.116Z,3.22
2022-12-31T23:28:33.957Z,3.20
2022-12-31T23:31:06.272Z,3.26
2022-12-31T23:33:33.196Z,3.24
2022-12-31T23:36:07.163Z,3.05
2022-12-31T23:38:34.129Z,2.94
2022-12-31T23:41:01.061Z,2.74
2022-12-31T23:43:27.937Z,2.65
2022-12-31T23:45:55.186Z,2.69
2022-12-31T23:48:22.091Z,2.98
2022-12-31T23:50:53.869Z,2.95
2022-12-31T23:53:22.977Z,2.82
2022-12-31T23:55:50.267Z,2.72
2022-12-31T23:58:19.834Z,2.60
